sensor_id;sensor_type;location;lat;lon;timestamp;pressure;altitude;pressure_sealevel;temperature;humidity
28428;BME280;15662;49.128;8.520;2022-11-15T00:00:19;100200.59;;;14.49;56.39
28428;BME280;15662;49.128;8.520;2022-11-15T00:03:06;100195.06;;;14.54;56.24
28428;BME280;15662;49.128;8.520;2022-11-15T00:05:53;100196.81;;;14.55;56.24
28428;BME280;15662;49.128;8.520;2022-11-15T00:08:39;100175.59;;;14.52;56.19
28428;BME280;15662;49.128;8.520;2022-11-15T00:11:26;100189.59;;;14.57;56.26
28428;BME280;15662;49.128;8.520;2022-11-15T00:14:12;100177.06;;;14.59;56.31
28428;BME280;15662;49.128;8.520;2022-11-15T00:16:59;100180.44;;;14.62;56.28
28428;BME280;15662;49.128;8.520;2022-11-15T00:19:45;100180.38;;;14.64;56.35
28428;BME280;15662;49.128;8.520;2022-11-15T00:22:33;100184.56;;;14.69;56.47
28428;BME280;15662;49.128;8.520;2022-11-15T00:25:19;100176.69;;;14.66;56.17
28428;BME280;15662;49.128;8.520;2022-11-15T00:28:06;100173.97;;;14.68;56.45
28428;BME280;15662;49.128;8.520;2022-11-15T00:30:53;100177.44;;;14.70;56.33
28428;BME280;15662;49.128;8.520;2022-11-15T00:33:39;100166.97;;;14.65;56.19
28428;BME280;15662;49.128;8.520;2022-11-15T00:36:27;100175.97;;;14.63;56.24
28428;BME280;15662;49.128;8.520;2022-11-15T00:39:13;100171.53;;;14.63;56.23
28428;BME280;15662;49.128;8.520;2022-11-15T00:42:00;100166.53;;;14.56;56.10
28428;BME280;15662;49.128;8.520;2022-11-15T00:44:47;100171.06;;;14.54;56.22
28428;BME280;15662;49.128;8.520;2022-11-15T00:47:33;100167.66;;;14.50;56.33
28428;BME280;15662;49.128;8.520;2022-11-15T00:50:20;100173.78;;;14.52;56.26
28428;BME280;15662;49.128;8.520;2022-11-15T00:53:06;100160.41;;;14.54;56.29
28428;BME280;15662;49.128;8.520;2022-11-15T00:55:53;100148.06;;;14.51;56.25
28428;BME280;15662;49.128;8.520;2022-11-15T00:58:40;100165.66;;;14.55;56.32
28428;BME280;15662;49.128;8.520;2022-11-15T01:01:27;100139.19;;;14.51;56.33
28428;BME280;15662;49.128;8.520;2022-11-15T01:04:13;100147.97;;;14.53;56.27
28428;BME280;15662;49.128;8.520;2022-11-15T01:07:00;100161.91;;;14.59;56.40
28428;BME280;15662;49.128;8.520;2022-11-15T01:09:47;100142.72;;;14.51;56.47
28428;BME280;15662;49.128;8.520;2022-11-15T01:12:35;100162.78;;;14.60;56.44
28428;BME280;15662;49.128;8.520;2022-11-15T01:15:21;100154.88;;;14.58;56.52
28428;BME280;15662;49.128;8.520;2022-11-15T01:18:08;100131.13;;;14.52;56.44
28428;BME280;15662;49.128;8.520;2022-11-15T01:20:54;100147.44;;;14.65;56.51
28428;BME280;15662;49.128;8.520;2022-11-15T01:23:42;100143.69;;;14.69;56.59
28428;BME280;15662;49.128;8.520;2022-11-15T01:26:28;100140.00;;;14.71;56.66
28428;BME280;15662;49.128;8.520;2022-11-15T01:29:15;100129.75;;;14.62;56.53
28428;BME280;15662;49.128;8.520;2022-11-15T01:32:01;100132.09;;;14.70;56.48
28428;BME280;15662;49.128;8.520;2022-11-15T01:34:48;100140.22;;;14.67;56.50
28428;BME280;15662;49.128;8.520;2022-11-15T01:37:34;100128.75;;;14.65;56.60
28428;BME280;15662;49.128;8.520;2022-11-15T01:40:21;100126.22;;;14.62;56.63
28428;BME280;15662;49.128;8.520;2022-11-15T01:43:31;100130.56;;;14.64;56.50
28428;BME280;15662;49.128;8.520;2022-11-15T01:46:39;100129.72;;;14.64;56.67
28428;BME280;15662;49.128;8.520;2022-11-15T01:49:30;100112.09;;;14.60;56.72
28428;BME280;15662;49.128;8.520;2022-11-15T01:52:21;100115.50;;;14.63;56.77
28428;BME280;15662;49.128;8.520;2022-11-15T01:55:15;100114.56;;;14.64;56.69
28428;BME280;15662;49.128;8.520;2022-11-15T01:58:04;100109.34;;;14.61;56.58
28428;BME280;15662;49.128;8.520;2022-11-15T02:00:52;100102.59;;;14.54;56.67
28428;BME280;15662;49.128;8.520;2022-11-15T02:04:12;100118.31;;;14.60;56.67
28428;BME280;15662;49.128;8.520;2022-11-15T02:07:03;100114.84;;;14.58;56.89
28428;BME280;15662;49.128;8.520;2022-11-15T02:09:52;100112.03;;;14.61;56.66
28428;BME280;15662;49.128;8.520;2022-11-15T02:12:38;100098.59;;;14.63;56.71
28428;BME280;15662;49.128;8.520;2022-11-15T02:15:35;100084.34;;;14.64;56.56
28428;BME280;15662;49.128;8.520;2022-11-15T02:18:35;100080.88;;;14.62;56.60
28428;BME280;15662;49.128;8.520;2022-11-15T02:34:26;100071.44;;;14.74;56.91
28428;BME280;15662;49.128;8.520;2022-11-15T02:41:11;100051.91;;;14.73;56.85
28428;BME280;15662;49.128;8.520;2022-11-15T02:47:09;100041.25;;;14.73;56.76
28428;BME280;15662;49.128;8.520;2022-11-15T02:50:09;100032.34;;;14.73;56.70
28428;BME280;15662;49.128;8.520;2022-11-15T02:52:56;100058.91;;;14.76;56.79
28428;BME280;15662;49.128;8.520;2022-11-15T02:55:49;100033.38;;;14.70;56.59
28428;BME280;15662;49.128;8.520;2022-11-15T03:05:35;100037.78;;;14.71;56.79
28428;BME280;15662;49.128;8.520;2022-11-15T03:11:21;100039.44;;;14.74;56.86
28428;BME280;15662;49.128;8.520;2022-11-15T03:14:24;100033.88;;;14.78;56.77
28428;BME280;15662;49.128;8.520;2022-11-15T03:17:45;100025.16;;;14.75;56.86
28428;BME280;15662;49.128;8.520;2022-11-15T03:20:35;100020.91;;;14.70;56.97
28428;BME280;15662;49.128;8.520;2022-11-15T03:23:22;100018.09;;;14.74;57.02
28428;BME280;15662;49.128;8.520;2022-11-15T03:26:13;100017.88;;;14.78;57.01
28428;BME280;15662;49.128;8.520;2022-11-15T03:29:09;100017.72;;;14.81;57.07
28428;BME280;15662;49.128;8.520;2022-11-15T03:32:11;100016.84;;;14.81;57.08
28428;BME280;15662;49.128;8.520;2022-11-15T03:35:10;100029.81;;;14.88;57.16
28428;BME280;15662;49.128;8.520;2022-11-15T03:38:23;100017.25;;;14.90;56.99
28428;BME280;15662;49.128;8.520;2022-11-15T03:41:25;100009.47;;;14.86;57.03
28428;BME280;15662;49.128;8.520;2022-11-15T03:44:37;100019.78;;;14.93;57.15
28428;BME280;15662;49.128;8.520;2022-11-15T03:47:40;100013.66;;;14.91;57.17
28428;BME280;15662;49.128;8.520;2022-11-15T03:50:27;100001.09;;;14.93;57.43
28428;BME280;15662;49.128;8.520;2022-11-15T03:53:16;99997.34;;;14.98;57.23
28428;BME280;15662;49.128;8.520;2022-11-15T03:56:02;100007.13;;;14.97;57.18
28428;BME280;15662;49.128;8.520;2022-11-15T03:58:50;100012.19;;;15.03;57.18
28428;BME280;15662;49.128;8.520;2022-11-15T04:01:36;100013.19;;;15.01;57.19
28428;BME280;15662;49.128;8.520;2022-11-15T04:04:23;100017.66;;;15.00;57.23
28428;BME280;15662;49.128;8.520;2022-11-15T04:07:09;100003.47;;;15.00;57.23
28428;BME280;15662;49.128;8.520;2022-11-15T04:09:56;100006.13;;;15.00;57.02
28428;BME280;15662;49.128;8.520;2022-11-15T04:12:49;100017.53;;;15.03;57.33
28428;BME280;15662;49.128;8.520;2022-11-15T04:15:35;100013.09;;;15.02;57.35
28428;BME280;15662;49.128;8.520;2022-11-15T04:18:21;100005.09;;;15.02;57.26
28428;BME280;15662;49.128;8.520;2022-11-15T04:21:09;100006.91;;;15.02;57.20
28428;BME280;15662;49.128;8.520;2022-11-15T04:24:14;100007.09;;;14.99;57.34
28428;BME280;15662;49.128;8.520;2022-11-15T04:27:01;100002.03;;;14.92;57.33
28428;BME280;15662;49.128;8.520;2022-11-15T04:29:48;100005.19;;;15.01;57.25
28428;BME280;15662;49.128;8.520;2022-11-15T04:32:34;100004.19;;;15.03;57.29
28428;BME280;15662;49.128;8.520;2022-11-15T04:35:21;99989.03;;;15.04;57.51
28428;BME280;15662;49.128;8.520;2022-11-15T04:38:09;99990.03;;;15.01;57.30
28428;BME280;15662;49.128;8.520;2022-11-15T04:40:56;99997.91;;;15.04;57.31
28428;BME280;15662;49.128;8.520;2022-11-15T04:43:43;100001.66;;;15.00;57.38
28428;BME280;15662;49.128;8.520;2022-11-15T04:46:29;99996.09;;;15.05;57.43
28428;BME280;15662;49.128;8.520;2022-11-15T04:49:17;100003.06;;;15.07;57.44
28428;BME280;15662;49.128;8.520;2022-11-15T04:52:04;99988.81;;;15.08;57.50
28428;BME280;15662;49.128;8.520;2022-11-15T04:54:51;99991.47;;;15.08;57.46
28428;BME280;15662;49.128;8.520;2022-11-15T04:57:38;99996.41;;;15.16;57.33
28428;BME280;15662;49.128;8.520;2022-11-15T05:00:24;99995.47;;;15.17;57.58
28428;BME280;15662;49.128;8.520;2022-11-15T05:03:10;100010.47;;;15.19;57.69
28428;BME280;15662;49.128;8.520;2022-11-15T05:06:16;99997.91;;;15.21;57.66
28428;BME280;15662;49.128;8.520;2022-11-15T05:09:03;99996.97;;;15.22;57.60
28428;BME280;15662;49.128;8.520;2022-11-15T05:11:49;99997.63;;;15.28;57.69
28428;BME280;15662;49.128;8.520;2022-11-15T05:14:35;99987.94;;;15.25;57.63
28428;BME280;15662;49.128;8.520;2022-11-15T05:17:22;99977.88;;;15.30;57.60
28428;BME280;15662;49.128;8.520;2022-11-15T05:20:09;99974.44;;;15.28;57.34
28428;BME280;15662;49.128;8.520;2022-11-15T05:22:55;99983.09;;;15.33;57.56
28428;BME280;15662;49.128;8.520;2022-11-15T05:25:42;99992.03;;;15.32;57.48
28428;BME280;15662;49.128;8.520;2022-11-15T05:28:29;99988.75;;;15.27;57.55
28428;BME280;15662;49.128;8.520;2022-11-15T05:31:16;99987.84;;;15.27;57.52
28428;BME280;15662;49.128;8.520;2022-11-15T05:34:04;99976.25;;;15.28;57.54
28428;BME280;15662;49.128;8.520;2022-11-15T05:36:52;99986.13;;;15.26;57.74
28428;BME280;15662;49.128;8.520;2022-11-15T05:39:39;99963.81;;;15.27;57.53
28428;BME280;15662;49.128;8.520;2022-11-15T05:42:27;99973.50;;;15.29;57.60
28428;BME280;15662;49.128;8.520;2022-11-15T05:45:14;99975.13;;;15.32;57.69
28428;BME280;15662;49.128;8.520;2022-11-15T05:48:09;99975.06;;;15.33;57.46
28428;BME280;15662;49.128;8.520;2022-11-15T05:50:56;99974.22;;;15.33;57.53
28428;BME280;15662;49.128;8.520;2022-11-15T05:53:43;99975.13;;;15.32;57.52
28428;BME280;15662;49.128;8.520;2022-11-15T05:56:30;99978.69;;;15.32;57.14
28428;BME280;15662;49.128;8.520;2022-11-15T05:59:17;99972.94;;;15.22;57.40
28428;BME280;15662;49.128;8.520;2022-11-15T06:02:04;99983.47;;;15.26;57.59
28428;BME280;15662;49.128;8.520;2022-11-15T06:04:50;99980.72;;;15.27;57.61
28428;BME280;15662;49.128;8.520;2022-11-15T06:07:37;99981.66;;;15.26;57.43
28428;BME280;15662;49.128;8.520;2022-11-15T06:10:26;99978.13;;;15.26;57.22
28428;BME280;15662;49.128;8.520;2022-11-15T06:13:13;99989.66;;;15.26;57.20
28428;BME280;15662;49.128;8.520;2022-11-15T06:16:01;99984.56;;;15.21;57.09
28428;BME280;15662;49.128;8.520;2022-11-15T06:18:49;99979.53;;;15.15;57.23
28428;BME280;15662;49.128;8.520;2022-11-15T06:21:36;99983.00;;;15.17;57.22
28428;BME280;15662;49.128;8.520;2022-11-15T06:24:23;99979.63;;;15.14;57.15
28428;BME280;15662;49.128;8.520;2022-11-15T06:27:11;99984.09;;;15.13;57.17
28428;BME280;15662;49.128;8.520;2022-11-15T06:29:57;99982.53;;;15.09;57.20
28428;BME280;15662;49.128;8.520;2022-11-15T06:32:44;99973.88;;;15.04;57.25
28428;BME280;15662;49.128;8.520;2022-11-15T06:35:34;99962.97;;;15.09;57.37
28428;BME280;15662;49.128;8.520;2022-11-15T06:38:21;99950.72;;;15.05;57.53
28428;BME280;15662;49.128;8.520;2022-11-15T06:41:10;99957.69;;;15.07;57.36
28428;BME280;15662;49.128;8.520;2022-11-15T06:43:59;99946.97;;;15.09;57.45
28428;BME280;15662;49.128;8.520;2022-11-15T06:46:46;99948.59;;;15.11;57.37
28428;BME280;15662;49.128;8.520;2022-11-15T06:49:32;99951.25;;;15.11;57.37
28428;BME280;15662;49.128;8.520;2022-11-15T06:52:19;99964.69;;;15.10;57.57
28428;BME280;15662;49.128;8.520;2022-11-15T06:55:06;99980.72;;;15.10;57.78
28428;BME280;15662;49.128;8.520;2022-11-15T06:57:54;99982.84;;;15.03;58.00
28428;BME280;15662;49.128;8.520;2022-11-15T07:00:41;99980.41;;;14.99;57.90
28428;BME280;15662;49.128;8.520;2022-11-15T07:03:28;99983.22;;;14.95;57.93
28428;BME280;15662;49.128;8.520;2022-11-15T07:06:15;99983.22;;;14.95;58.08
28428;BME280;15662;49.128;8.520;2022-11-15T07:09:03;99976.78;;;15.00;58.06
28428;BME280;15662;49.128;8.520;2022-11-15T07:11:49;99981.72;;;15.07;58.11
28428;BME280;15662;49.128;8.520;2022-11-15T07:14:36;99986.06;;;15.10;58.01
28428;BME280;15662;49.128;8.520;2022-11-15T07:17:23;99987.84;;;15.09;58.08
28428;BME280;15662;49.128;8.520;2022-11-15T07:20:11;99995.72;;;15.12;58.05
28428;BME280;15662;49.128;8.520;2022-11-15T07:23:04;99988.81;;;15.08;58.03
28428;BME280;15662;49.128;8.520;2022-11-15T07:25:50;99978.41;;;15.02;58.47
28428;BME280;15662;49.128;8.520;2022-11-15T07:28:36;99983.47;;;15.08;58.43
28428;BME280;15662;49.128;8.520;2022-11-15T07:31:23;99992.25;;;15.10;58.23
28428;BME280;15662;49.128;8.520;2022-11-15T07:34:10;99991.31;;;15.11;58.43
28428;BME280;15662;49.128;8.520;2022-11-15T07:36:56;99991.78;;;15.19;58.42
28428;BME280;15662;49.128;8.520;2022-11-15T07:39:44;99992.31;;;15.26;58.14
28428;BME280;15662;49.128;8.520;2022-11-15T07:42:31;99992.91;;;15.33;58.25
28428;BME280;15662;49.128;8.520;2022-11-15T07:45:50;99976.88;;;15.33;58.27
28428;BME280;15662;49.128;8.520;2022-11-15T07:48:44;99987.16;;;15.40;58.39
28428;BME280;15662;49.128;8.520;2022-11-15T07:51:31;99988.56;;;15.47;58.21
28428;BME280;15662;49.128;8.520;2022-11-15T07:54:18;99997.97;;;15.55;58.33
28428;BME280;15662;49.128;8.520;2022-11-15T07:57:05;99990.78;;;15.57;58.46
28428;BME280;15662;49.128;8.520;2022-11-15T07:59:53;100004.53;;;15.66;58.11
28428;BME280;15662;49.128;8.520;2022-11-15T08:02:40;99994.47;;;15.71;58.02
28428;BME280;15662;49.128;8.520;2022-11-15T08:05:26;99977.50;;;15.72;58.06
28428;BME280;15662;49.128;8.520;2022-11-15T08:08:12;99974.50;;;15.79;58.23
28428;BME280;15662;49.128;8.520;2022-11-15T08:11:00;99981.22;;;15.86;58.05
28428;BME280;15662;49.128;8.520;2022-11-15T08:13:46;99979.16;;;15.91;58.06
28428;BME280;15662;49.128;8.520;2022-11-15T08:16:33;99980.72;;;15.95;58.07
28428;BME280;15662;49.128;8.520;2022-11-15T08:19:19;99974.47;;;15.96;58.08
28428;BME280;15662;49.128;8.520;2022-11-15T08:22:07;99971.34;;;16.04;58.16
28428;BME280;15662;49.128;8.520;2022-11-15T08:24:54;99965.06;;;16.05;57.93
28428;BME280;15662;49.128;8.520;2022-11-15T08:27:40;99965.50;;;16.13;58.04
28428;BME280;15662;49.128;8.520;2022-11-15T08:30:27;99965.16;;;16.19;58.01
28428;BME280;15662;49.128;8.520;2022-11-15T08:33:15;99962.22;;;16.23;57.99
28428;BME280;15662;49.128;8.520;2022-11-15T08:36:02;99964.56;;;16.30;57.87
28428;BME280;15662;49.128;8.520;2022-11-15T08:38:49;99956.38;;;16.33;58.02
28428;BME280;15662;49.128;8.520;2022-11-15T08:41:37;99949.13;;;16.35;58.06
28428;BME280;15662;49.128;8.520;2022-11-15T08:44:24;99945.50;;;16.36;58.10
28428;BME280;15662;49.128;8.520;2022-11-15T08:47:13;99960.09;;;16.46;58.11
28428;BME280;15662;49.128;8.520;2022-11-15T08:50:00;99957.75;;;16.40;58.30
28428;BME280;15662;49.128;8.520;2022-11-15T08:52:47;99947.84;;;16.42;58.36
28428;BME280;15662;49.128;8.520;2022-11-15T08:55:39;99948.59;;;16.44;58.41
28428;BME280;15662;49.128;8.520;2022-11-15T08:58:26;99958.63;;;16.56;58.42
28428;BME280;15662;49.128;8.520;2022-11-15T09:01:19;99959.72;;;16.68;58.27
28428;BME280;15662;49.128;8.520;2022-11-15T09:04:05;99953.19;;;16.73;58.42
28428;BME280;15662;49.128;8.520;2022-11-15T09:06:52;99948.44;;;16.79;58.29
28428;BME280;15662;49.128;8.520;2022-11-15T09:09:39;99943.59;;;16.85;58.42
28428;BME280;15662;49.128;8.520;2022-11-15T09:12:26;99941.59;;;16.89;58.32
28428;BME280;15662;49.128;8.520;2022-11-15T09:15:12;99940.19;;;16.97;58.08
28428;BME280;15662;49.128;8.520;2022-11-15T09:17:59;99938.97;;;17.03;58.07
28428;BME280;15662;49.128;8.520;2022-11-15T09:20:46;99944.84;;;17.10;58.04
28428;BME280;15662;49.128;8.520;2022-11-15T09:23:33;99940.06;;;17.15;57.98
28428;BME280;15662;49.128;8.520;2022-11-15T09:26:20;99951.09;;;17.24;58.00
28428;BME280;15662;49.128;8.520;2022-11-15T09:29:09;99944.66;;;17.27;57.84
28428;BME280;15662;49.128;8.520;2022-11-15T09:31:55;99940.16;;;17.27;57.76
28428;BME280;15662;49.128;8.520;2022-11-15T09:34:42;99940.59;;;17.36;57.86
28428;BME280;15662;49.128;8.520;2022-11-15T09:37:31;99927.28;;;17.34;57.76
28428;BME280;15662;49.128;8.520;2022-11-15T09:40:20;99946.34;;;17.44;57.80
28428;BME280;15662;49.128;8.520;2022-11-15T09:47:06;99932.63;;;17.48;57.66
28428;BME280;15662;49.128;8.520;2022-11-15T09:50:00;99935.31;;;17.48;57.95
28428;BME280;15662;49.128;8.520;2022-11-15T09:52:35;99927.97;;;17.52;57.86
28428;BME280;15662;49.128;8.520;2022-11-15T09:55:07;99928.66;;;17.56;57.80
28428;BME280;15662;49.128;8.520;2022-11-15T09:57:55;99931.03;;;17.60;57.73
28428;BME280;15662;49.128;8.520;2022-11-15T10:00:41;99925.88;;;17.57;57.73
28428;BME280;15662;49.128;8.520;2022-11-15T10:03:18;99930.25;;;17.58;57.74
28428;BME280;15662;49.128;8.520;2022-11-15T10:05:50;99916.69;;;17.61;57.68
28428;BME280;15662;49.128;8.520;2022-11-15T10:11:24;99926.84;;;17.70;57.42
28428;BME280;15662;49.128;8.520;2022-11-15T10:14:18;99928.56;;;17.71;57.25
28428;BME280;15662;49.128;8.520;2022-11-15T10:22:47;99926.16;;;17.67;56.82
28428;BME280;15662;49.128;8.520;2022-11-15T10:28:23;99920.50;;;17.71;56.39
28428;BME280;15662;49.128;8.520;2022-11-15T10:31:28;99914.41;;;17.69;56.49
28428;BME280;15662;49.128;8.520;2022-11-15T10:34:18;99917.94;;;17.70;56.43
28428;BME280;15662;49.128;8.520;2022-11-15T10:36:58;99919.41;;;17.75;56.15
28428;BME280;15662;49.128;8.520;2022-11-15T10:39:26;99918.44;;;17.76;56.52
28428;BME280;15662;49.128;8.520;2022-11-15T10:41:55;99913.75;;;17.80;56.52
28428;BME280;15662;49.128;8.520;2022-11-15T10:44:31;99899.97;;;17.86;56.35
28428;BME280;15662;49.128;8.520;2022-11-15T10:47:31;99898.91;;;17.89;56.32
28428;BME280;15662;49.128;8.520;2022-11-15T10:50:29;99889.69;;;17.93;56.30
28428;BME280;15662;49.128;8.520;2022-11-15T10:52:58;99885.22;;;17.93;56.45
28428;BME280;15662;49.128;8.520;2022-11-15T10:55:32;99876.00;;;17.97;56.57
28428;BME280;15662;49.128;8.520;2022-11-15T10:58:37;99881.28;;;17.99;56.36
28428;BME280;15662;49.128;8.520;2022-11-15T11:01:22;99877.53;;;18.01;56.52
28428;BME280;15662;49.128;8.520;2022-11-15T11:04:07;99872.84;;;18.05;56.52
28428;BME280;15662;49.128;8.520;2022-11-15T11:06:49;99860.97;;;18.09;56.56
28428;BME280;15662;49.128;8.520;2022-11-15T11:09:34;99850.97;;;18.11;56.41
28428;BME280;15662;49.128;8.520;2022-11-15T11:12:06;99852.69;;;18.12;56.51
28428;BME280;15662;49.128;8.520;2022-11-15T11:14:39;99841.88;;;18.14;56.41
28428;BME280;15662;49.128;8.520;2022-11-15T11:17:31;99832.31;;;18.10;56.58
28428;BME280;15662;49.128;8.520;2022-11-15T11:20:15;99837.94;;;18.19;56.51
28428;BME280;15662;49.128;8.520;2022-11-15T11:32:09;99826.00;;;18.38;56.43
28428;BME280;15662;49.128;8.520;2022-11-15T11:41:27;99790.88;;;18.41;56.31
28428;BME280;15662;49.128;8.520;2022-11-15T11:47:09;99786.50;;;18.40;56.32
28428;BME280;15662;49.128;8.520;2022-11-15T11:49:49;99784.78;;;18.39;56.42
28428;BME280;15662;49.128;8.520;2022-11-15T11:52:39;99781.97;;;18.40;56.24
28428;BME280;15662;49.128;8.520;2022-11-15T11:58:34;99776.25;;;18.32;56.11
28428;BME280;15662;49.128;8.520;2022-11-15T12:06:32;99770.34;;;18.27;56.12
28428;BME280;15662;49.128;8.520;2022-11-15T12:12:39;99750.16;;;18.21;56.22
28428;BME280;15662;49.128;8.520;2022-11-15T12:15:20;99741.38;;;18.19;56.19
28428;BME280;15662;49.128;8.520;2022-11-15T12:17:50;99750.81;;;18.25;56.18
28428;BME280;15662;49.128;8.520;2022-11-15T12:20:29;99753.00;;;18.33;55.83
28428;BME280;15662;49.128;8.520;2022-11-15T12:23:25;99746.44;;;18.37;55.75
28428;BME280;15662;49.128;8.520;2022-11-15T12:26:16;99739.16;;;18.39;55.44
28428;BME280;15662;49.128;8.520;2022-11-15T12:28:58;99734.66;;;18.39;55.46
28428;BME280;15662;49.128;8.520;2022-11-15T12:31:40;99731.97;;;18.39;55.64
28428;BME280;15662;49.128;8.520;2022-11-15T12:36:50;99728.97;;;18.44;55.39
28428;BME280;15662;49.128;8.520;2022-11-15T12:39:19;99726.19;;;18.45;55.40
28428;BME280;15662;49.128;8.520;2022-11-15T12:59:59;99704.03;;;18.69;54.97
28428;BME280;15662;49.128;8.520;2022-11-15T13:17:52;99665.44;;;18.95;54.29
28428;BME280;15662;49.128;8.520;2022-11-15T13:20:30;99652.66;;;18.99;54.20
28428;BME280;15662;49.128;8.520;2022-11-15T13:23:09;99651.47;;;19.03;54.30
28428;BME280;15662;49.128;8.520;2022-11-15T13:26:13;99646.22;;;19.01;54.34
28428;BME280;15662;49.128;8.520;2022-11-15T13:28:50;99636.34;;;19.02;54.16
28428;BME280;15662;49.128;8.520;2022-11-15T13:31:37;99629.22;;;19.01;54.26
28428;BME280;15662;49.128;8.520;2022-11-15T13:34:30;99632.56;;;19.04;54.24
28428;BME280;15662;49.128;8.520;2022-11-15T13:39:49;99619.00;;;19.06;54.40
28428;BME280;15662;49.128;8.520;2022-11-15T13:42:20;99620.50;;;19.10;54.37
28428;BME280;15662;49.128;8.520;2022-11-15T13:44:59;99611.13;;;19.16;54.43
28428;BME280;15662;49.128;8.520;2022-11-15T13:47:30;99613.94;;;19.14;54.33
28428;BME280;15662;49.128;8.520;2022-11-15T13:50:00;99615.56;;;19.17;54.39
28428;BME280;15662;49.128;8.520;2022-11-15T13:52:41;99609.22;;;19.18;54.47
28428;BME280;15662;49.128;8.520;2022-11-15T13:55:17;99599.53;;;19.15;54.46
28428;BME280;15662;49.128;8.520;2022-11-15T13:58:05;99601.78;;;19.21;54.29
28428;BME280;15662;49.128;8.520;2022-11-15T14:03:27;99582.00;;;19.22;54.48
28428;BME280;15662;49.128;8.520;2022-11-15T14:06:16;99589.09;;;19.23;54.38
28428;BME280;15662;49.128;8.520;2022-11-15T14:11:28;99577.50;;;19.23;54.51
28428;BME280;15662;49.128;8.520;2022-11-15T14:16:44;99570.06;;;19.26;54.29
28428;BME280;15662;49.128;8.520;2022-11-15T14:19:34;99551.81;;;19.19;54.02
28428;BME280;15662;49.128;8.520;2022-11-15T14:22:10;99563.09;;;19.24;54.06
28428;BME280;15662;49.128;8.520;2022-11-15T14:24:39;99543.75;;;19.19;54.18
28428;BME280;15662;49.128;8.520;2022-11-15T14:27:26;99542.91;;;19.18;53.75
28428;BME280;15662;49.128;8.520;2022-11-15T14:29:57;99526.50;;;19.10;53.81
28428;BME280;15662;49.128;8.520;2022-11-15T14:32:30;99524.66;;;19.11;54.06
28428;BME280;15662;49.128;8.520;2022-11-15T14:35:21;99520.06;;;19.13;53.91
28428;BME280;15662;49.128;8.520;2022-11-15T14:37:50;99509.78;;;19.06;53.99
28428;BME280;15662;49.128;8.520;2022-11-15T14:40:21;99490.09;;;19.06;54.04
28428;BME280;15662;49.128;8.520;2022-11-15T14:42:50;99507.69;;;19.10;54.07
28428;BME280;15662;49.128;8.520;2022-11-15T14:45:21;99507.47;;;19.13;54.00
28428;BME280;15662;49.128;8.520;2022-11-15T14:47:50;99499.97;;;19.05;54.02
28428;BME280;15662;49.128;8.520;2022-11-15T14:50:21;99508.66;;;19.09;54.09
28428;BME280;15662;49.128;8.520;2022-11-15T14:52:49;99511.47;;;19.07;54.02
28428;BME280;15662;49.128;8.520;2022-11-15T14:55:25;99509.53;;;19.10;54.01
28428;BME280;15662;49.128;8.520;2022-11-15T14:57:55;99497.53;;;19.02;54.03
28428;BME280;15662;49.128;8.520;2022-11-15T15:00:24;99501.94;;;19.03;53.94
28428;BME280;15662;49.128;8.520;2022-11-15T15:02:58;99493.16;;;19.01;53.93
28428;BME280;15662;49.128;8.520;2022-11-15T15:05:34;99492.16;;;19.02;53.77
28428;BME280;15662;49.128;8.520;2022-11-15T15:08:04;99499.59;;;18.99;54.06
28428;BME280;15662;49.128;8.520;2022-11-15T15:10:37;99493.25;;;19.00;53.99
28428;BME280;15662;49.128;8.520;2022-11-15T15:13:24;99477.88;;;19.02;53.73
28428;BME280;15662;49.128;8.520;2022-11-15T15:15:54;99470.06;;;18.99;53.81
28428;BME280;15662;49.128;8.520;2022-11-15T15:18:23;99476.16;;;19.01;53.91
28428;BME280;15662;49.128;8.520;2022-11-15T15:20:57;99475.19;;;19.02;53.75
28428;BME280;15662;49.128;8.520;2022-11-15T15:23:28;99463.69;;;19.00;53.53
28428;BME280;15662;49.128;8.520;2022-11-15T15:25:59;99464.56;;;19.00;53.54
28428;BME280;15662;49.128;8.520;2022-11-15T15:28:30;99457.59;;;18.98;53.84
28428;BME280;15662;49.128;8.520;2022-11-15T15:31:02;99449.75;;;18.95;53.68
28428;BME280;15662;49.128;8.520;2022-11-15T15:33:32;99448.78;;;18.96;53.74
28428;BME280;15662;49.128;8.520;2022-11-15T15:36:01;99432.16;;;18.91;53.59
28428;BME280;15662;49.128;8.520;2022-11-15T15:38:30;99438.91;;;18.96;53.42
28428;BME280;15662;49.128;8.520;2022-11-15T15:41:00;99424.56;;;18.85;53.60
28428;BME280;15662;49.128;8.520;2022-11-15T15:43:33;99437.44;;;18.92;53.61
28428;BME280;15662;49.128;8.520;2022-11-15T15:46:02;99436.59;;;18.92;53.52
28428;BME280;15662;49.128;8.520;2022-11-15T15:48:30;99430.47;;;18.90;53.45
28428;BME280;15662;49.128;8.520;2022-11-15T15:50:59;99438.38;;;18.91;53.46
28428;BME280;15662;49.128;8.520;2022-11-15T15:53:27;99430.47;;;18.90;53.58
28428;BME280;15662;49.128;8.520;2022-11-15T15:55:58;99434.84;;;18.91;53.41
28428;BME280;15662;49.128;8.520;2022-11-15T15:58:26;99429.38;;;18.92;53.43
28428;BME280;15662;49.128;8.520;2022-11-15T16:00:55;99427.66;;;18.91;53.41
28428;BME280;15662;49.128;8.520;2022-11-15T16:03:23;99421.31;;;18.92;53.52
28428;BME280;15662;49.128;8.520;2022-11-15T16:05:52;99423.25;;;18.90;53.27
28428;BME280;15662;49.128;8.520;2022-11-15T16:08:23;99414.13;;;18.93;53.26
28428;BME280;15662;49.128;8.520;2022-11-15T16:10:52;99414.66;;;18.74;53.75
28428;BME280;15662;49.128;8.520;2022-11-15T16:13:20;99403.31;;;18.81;53.72
28428;BME280;15662;49.128;8.520;2022-11-15T16:15:52;99400.91;;;18.90;53.44
28428;BME280;15662;49.128;8.520;2022-11-15T16:18:22;99388.59;;;18.87;53.50
28428;BME280;15662;49.128;8.520;2022-11-15T16:20:50;99383.09;;;18.89;53.49
28428;BME280;15662;49.128;8.520;2022-11-15T16:23:20;99388.34;;;18.90;53.31
28428;BME280;15662;49.128;8.520;2022-11-15T16:25:54;99377.75;;;18.89;53.20
28428;BME280;15662;49.128;8.520;2022-11-15T16:28:28;99380.28;;;18.90;53.37
28428;BME280;15662;49.128;8.520;2022-11-15T16:31:17;99362.31;;;18.79;53.37